sensor_id;sensor_type;location;lat;lon;timestamp;P1;durP1;ratioP1;P2;durP2;ratioP2
57655;SDS011;43482;53.334;6.744;2022-07-01T00:01:35;4.00;;;0.63;;
57655;SDS011;43482;53.334;6.744;2022-07-01T00:04:01;1.85;;;0.30;;
57655;SDS011;43482;53.334;6.744;2022-07-01T00:06:26;3.05;;;1.27;;
57655;SDS011;43482;53.334;6.744;2022-07-01T00:08:52;0.40;;;0.40;;
57655;SDS011;43482;53.334;6.744;2022-07-01T00:11:17;1.25;;;0.45;;
57655;SDS011;43482;53.334;6.744;2022-07-01T00:13:43;0.43;;;0.20;;
57655;SDS011;43482;53.334;6.744;2022-07-01T00:16:08;1.60;;;0.50;;
57655;SDS011;43482;53.334;6.744;2022-07-01T00:18:33;2.28;;;0.63;;
57655;SDS011;43482;53.334;6.744;2022-07-01T00:20:59;2.38;;;0.40;;
57655;SDS011;43482;53.334;6.744;2022-07-01T00:23:26;3.63;;;0.95;;
57655;SDS011;43482;53.334;6.744;2022-07-01T00:25:52;2.38;;;1.55;;
57655;SDS011;43482;53.334;6.744;2022-07-01T00:28:18;2.15;;;0.28;;
57655;SDS011;43482;53.334;6.744;2022-07-01T00:30:43;0.30;;;0.20;;
57655;SDS011;43482;53.334;6.744;2022-07-01T00:33:08;1.13;;;0.45;;
57655;SDS011;43482;53.334;6.744;2022-07-01T00:35:34;1.30;;;0.93;;
57655;SDS011;43482;53.334;6.744;2022-07-01T00:37:59;1.40;;;0.65;;
57655;SDS011;43482;53.334;6.744;2022-07-01T00:40:26;0.77;;;0.52;;
57655;SDS011;43482;53.334;6.744;2022-07-01T00:42:51;0.20;;;0.10;;
57655;SDS011;43482;53.334;6.744;2022-07-01T00:45:17;3.17;;;0.40;;
57655;SDS011;43482;53.334;6.744;2022-07-01T00:47:43;1.70;;;0.50;;
57655;SDS011;43482;53.334;6.744;2022-07-01T00:50:13;0.93;;;0.82;;
57655;SDS011;43482;53.334;6.744;2022-07-01T00:52:40;1.67;;;0.40;;
57655;SDS011;43482;53.334;6.744;2022-07-01T00:55:08;0.47;;;0.30;;
57655;SDS011;43482;53.334;6.744;2022-07-01T00:57:36;0.80;;;0.55;;
57655;SDS011;43482;53.334;6.744;2022-07-01T01:00:06;2.10;;;0.95;;
57655;SDS011;43482;53.334;6.744;2022-07-01T01:02:40;0.40;;;0.30;;
57655;SDS011;43482;53.334;6.744;2022-07-01T01:05:06;0.40;;;0.30;;
57655;SDS011;43482;53.334;6.744;2022-07-01T01:07:33;0.98;;;0.25;;
57655;SDS011;43482;53.334;6.744;2022-07-01T01:09:59;0.65;;;0.43;;
57655;SDS011;43482;53.334;6.744;2022-07-01T01:12:26;1.45;;;0.32;;
57655;SDS011;43482;53.334;6.744;2022-07-01T01:14:52;0.85;;;0.70;;
57655;SDS011;43482;53.334;6.744;2022-07-01T01:17:18;0.80;;;0.35;;
57655;SDS011;43482;53.334;6.744;2022-07-01T01:19:44;1.67;;;0.40;;
57655;SDS011;43482;53.334;6.744;2022-07-01T01:22:11;1.33;;;0.80;;
57655;SDS011;43482;53.334;6.744;2022-07-01T01:24:41;1.55;;;0.57;;
57655;SDS011;43482;53.334;6.744;2022-07-01T01:27:08;0.63;;;0.43;;
57655;SDS011;43482;53.334;6.744;2022-07-01T01:29:34;1.50;;;0.15;;
57655;SDS011;43482;53.334;6.744;2022-07-01T01:32:01;0.30;;;0.20;;
57655;SDS011;43482;53.334;6.744;2022-07-01T01:34:28;0.25;;;0.20;;
57655;SDS011;43482;53.334;6.744;2022-07-01T01:36:53;1.48;;;0.47;;
57655;SDS011;43482;53.334;6.744;2022-07-01T01:39:19;1.08;;;0.52;;
57655;SDS011;43482;53.334;6.744;2022-07-01T01:41:45;0.82;;;0.38;;
57655;SDS011;43482;53.334;6.744;2022-07-01T01:44:11;2.63;;;0.30;;
57655;SDS011;43482;53.334;6.744;2022-07-01T01:46:37;1.90;;;0.82;;
57655;SDS011;43482;53.334;6.744;2022-07-01T01:49:03;1.35;;;0.45;;
57655;SDS011;43482;53.334;6.744;2022-07-01T01:51:30;0.73;;;0.40;;
57655;SDS011;43482;53.334;6.744;2022-07-01T01:53:56;0.20;;;0.20;;
57655;SDS011;43482;53.334;6.744;2022-07-01T01:56:22;2.30;;;0.47;;
57655;SDS011;43482;53.334;6.744;2022-07-01T01:58:48;0.40;;;0.28;;
57655;SDS011;43482;53.334;6.744;2022-07-01T02:01:15;0.40;;;0.30;;
57655;SDS011;43482;53.334;6.744;2022-07-01T02:03:41;1.90;;;0.70;;
57655;SDS011;43482;53.334;6.744;2022-07-01T02:06:08;0.30;;;0.30;;
57655;SDS011;43482;53.334;6.744;2022-07-01T02:08:34;0.50;;;0.30;;
57655;SDS011;43482;53.334;6.744;2022-07-01T02:11:00;0.52;;;0.22;;
57655;SDS011;43482;53.334;6.744;2022-07-01T02:13:26;0.90;;;0.57;;
57655;SDS011;43482;53.334;6.744;2022-07-01T02:15:51;1.55;;;0.25;;
57655;SDS011;43482;53.334;6.744;2022-07-01T02:18:17;0.93;;;0.40;;
57655;SDS011;43482;53.334;6.744;2022-07-01T02:20:42;0.30;;;0.20;;
57655;SDS011;43482;53.334;6.744;2022-07-01T02:23:08;0.43;;;0.35;;
57655;SDS011;43482;53.334;6.744;2022-07-01T02:25:34;1.48;;;0.88;;
57655;SDS011;43482;53.334;6.744;2022-07-01T02:28:00;1.48;;;0.40;;
57655;SDS011;43482;53.334;6.744;2022-07-01T02:30:25;0.80;;;0.60;;
57655;SDS011;43482;53.334;6.744;2022-07-01T02:32:52;0.63;;;0.52;;
57655;SDS011;43482;53.334;6.744;2022-07-01T02:35:17;4.88;;;0.38;;
57655;SDS011;43482;53.334;6.744;2022-07-01T02:37:43;1.58;;;0.85;;
57655;SDS011;43482;53.334;6.744;2022-07-01T02:40:09;0.73;;;0.73;;
57655;SDS011;43482;53.334;6.744;2022-07-01T02:42:35;3.38;;;0.70;;
57655;SDS011;43482;53.334;6.744;2022-07-01T02:45:01;0.43;;;0.32;;
57655;SDS011;43482;53.334;6.744;2022-07-01T02:47:32;1.42;;;0.60;;
57655;SDS011;43482;53.334;6.744;2022-07-01T02:49:59;1.58;;;0.50;;
57655;SDS011;43482;53.334;6.744;2022-07-01T02:52:25;1.88;;;1.02;;
57655;SDS011;43482;53.334;6.744;2022-07-01T02:54:52;1.38;;;0.77;;
57655;SDS011;43482;53.334;6.744;2022-07-01T02:57:17;4.53;;;1.15;;
57655;SDS011;43482;53.334;6.744;2022-07-01T02:59:43;0.88;;;0.68;;
57655;SDS011;43482;53.334;6.744;2022-07-01T03:02:08;1.92;;;0.70;;
57655;SDS011;43482;53.334;6.744;2022-07-01T03:04:33;0.50;;;0.30;;
57655;SDS011;43482;53.334;6.744;2022-07-01T03:06:59;0.82;;;0.50;;
57655;SDS011;43482;53.334;6.744;2022-07-01T03:09:24;0.63;;;0.50;;
57655;SDS011;43482;53.334;6.744;2022-07-01T03:11:50;5.55;;;0.60;;
57655;SDS011;43482;53.334;6.744;2022-07-01T03:14:15;1.13;;;0.60;;
57655;SDS011;43482;53.334;6.744;2022-07-01T03:16:41;1.92;;;0.63;;
57655;SDS011;43482;53.334;6.744;2022-07-01T03:19:06;3.13;;;0.85;;
57655;SDS011;43482;53.334;6.744;2022-07-01T03:21:32;2.08;;;1.10;;
57655;SDS011;43482;53.334;6.744;2022-07-01T03:23:58;1.90;;;1.00;;
57655;SDS011;43482;53.334;6.744;2022-07-01T03:26:23;2.45;;;0.82;;
57655;SDS011;43482;53.334;6.744;2022-07-01T03:28:49;0.98;;;0.77;;
57655;SDS011;43482;53.334;6.744;2022-07-01T03:31:14;1.23;;;0.70;;
57655;SDS011;43482;53.334;6.744;2022-07-01T03:33:40;1.38;;;0.60;;
57655;SDS011;43482;53.334;6.744;2022-07-01T03:36:05;2.42;;;0.90;;
57655;SDS011;43482;53.334;6.744;2022-07-01T03:38:30;1.98;;;0.55;;
57655;SDS011;43482;53.334;6.744;2022-07-01T03:40:56;1.38;;;1.00;;
57655;SDS011;43482;53.334;6.744;2022-07-01T03:43:21;1.33;;;0.70;;
57655;SDS011;43482;53.334;6.744;2022-07-01T03:45:47;1.52;;;0.70;;
57655;SDS011;43482;53.334;6.744;2022-07-01T03:48:12;2.35;;;1.48;;
57655;SDS011;43482;53.334;6.744;2022-07-01T03:50:37;1.98;;;1.00;;
57655;SDS011;43482;53.334;6.744;2022-07-01T03:53:03;4.68;;;0.88;;
57655;SDS011;43482;53.334;6.744;2022-07-01T03:55:49;1.65;;;0.70;;
57655;SDS011;43482;53.334;6.744;2022-07-01T03:58:14;0.80;;;0.40;;
57655;SDS011;43482;53.334;6.744;2022-07-01T04:00:39;3.25;;;1.30;;
57655;SDS011;43482;53.334;6.744;2022-07-01T04:03:05;3.53;;;0.85;;
57655;SDS011;43482;53.334;6.744;2022-07-01T04:05:35;2.70;;;0.80;;
57655;SDS011;43482;53.334;6.744;2022-07-01T04:08:02;1.50;;;1.23;;
57655;SDS011;43482;53.334;6.744;2022-07-01T04:10:31;1.08;;;0.70;;
57655;SDS011;43482;53.334;6.744;2022-07-01T04:12:59;4.15;;;0.60;;
57655;SDS011;43482;53.334;6.744;2022-07-01T04:15:28;1.98;;;0.82;;
57655;SDS011;43482;53.334;6.744;2022-07-01T04:17:53;1.15;;;1.05;;
57655;SDS011;43482;53.334;6.744;2022-07-01T04:20:20;1.75;;;0.85;;
57655;SDS011;43482;53.334;6.744;2022-07-01T04:22:45;1.08;;;0.60;;
57655;SDS011;43482;53.334;6.744;2022-07-01T04:25:11;1.45;;;0.80;;
57655;SDS011;43482;53.334;6.744;2022-07-01T04:27:37;6.28;;;0.80;;
57655;SDS011;43482;53.334;6.744;2022-07-01T04:30:02;1.42;;;1.00;;
57655;SDS011;43482;53.334;6.744;2022-07-01T04:32:28;1.67;;;0.80;;
57655;SDS011;43482;53.334;6.744;2022-07-01T04:34:55;2.78;;;1.10;;
57655;SDS011;43482;53.334;6.744;2022-07-01T04:37:20;1.40;;;1.02;;
57655;SDS011;43482;53.334;6.744;2022-07-01T04:39:46;1.38;;;0.80;;
57655;SDS011;43482;53.334;6.744;2022-07-01T04:42:11;1.90;;;1.08;;
57655;SDS011;43482;53.334;6.744;2022-07-01T04:44:38;2.17;;;0.98;;
57655;SDS011;43482;53.334;6.744;2022-07-01T04:47:04;1.42;;;1.10;;
57655;SDS011;43482;53.334;6.744;2022-07-01T04:49:30;1.65;;;0.93;;
57655;SDS011;43482;53.334;6.744;2022-07-01T04:51:56;1.98;;;1.13;;
57655;SDS011;43482;53.334;6.744;2022-07-01T04:54:22;1.88;;;0.80;;
57655;SDS011;43482;53.334;6.744;2022-07-01T04:56:48;4.57;;;1.45;;
57655;SDS011;43482;53.334;6.744;2022-07-01T04:59:14;1.42;;;1.00;;
57655;SDS011;43482;53.334;6.744;2022-07-01T05:01:40;8.60;;;1.58;;
57655;SDS011;43482;53.334;6.744;2022-07-01T05:04:07;2.15;;;1.13;;
57655;SDS011;43482;53.334;6.744;2022-07-01T05:06:33;3.83;;;1.23;;
57655;SDS011;43482;53.334;6.744;2022-07-01T05:08:59;3.80;;;1.50;;
57655;SDS011;43482;53.334;6.744;2022-07-01T05:11:25;1.40;;;1.10;;
57655;SDS011;43482;53.334;6.744;2022-07-01T05:13:50;2.75;;;1.20;;
57655;SDS011;43482;53.334;6.744;2022-07-01T05:16:16;1.92;;;1.40;;
57655;SDS011;43482;53.334;6.744;2022-07-01T05:18:42;2.17;;;1.10;;
57655;SDS011;43482;53.334;6.744;2022-07-01T05:21:26;1.98;;;1.08;;
57655;SDS011;43482;53.334;6.744;2022-07-01T05:24:10;4.65;;;1.13;;
57655;SDS011;43482;53.334;6.744;2022-07-01T05:26:35;1.88;;;1.13;;
57655;SDS011;43482;53.334;6.744;2022-07-01T05:29:01;1.27;;;1.02;;
57655;SDS011;43482;53.334;6.744;2022-07-01T05:31:26;2.33;;;1.20;;
57655;SDS011;43482;53.334;6.744;2022-07-01T05:33:52;1.88;;;1.15;;
57655;SDS011;43482;53.334;6.744;2022-07-01T05:36:17;6.47;;;1.80;;
57655;SDS011;43482;53.334;6.744;2022-07-01T05:38:43;3.38;;;1.58;;
57655;SDS011;43482;53.334;6.744;2022-07-01T05:41:09;2.00;;;1.17;;
57655;SDS011;43482;53.334;6.744;2022-07-01T05:43:34;2.05;;;1.15;;
57655;SDS011;43482;53.334;6.744;2022-07-01T05:46:00;3.08;;;1.42;;
57655;SDS011;43482;53.334;6.744;2022-07-01T05:48:26;3.50;;;2.10;;
57655;SDS011;43482;53.334;6.744;2022-07-01T05:50:52;1.73;;;1.25;;
57655;SDS011;43482;53.334;6.744;2022-07-01T05:53:17;1.88;;;1.20;;
57655;SDS011;43482;53.334;6.744;2022-07-01T05:55:43;2.88;;;1.80;;
57655;SDS011;43482;53.334;6.744;2022-07-01T05:58:12;4.55;;;1.85;;
57655;SDS011;43482;53.334;6.744;2022-07-01T06:00:41;2.63;;;1.75;;
57655;SDS011;43482;53.334;6.744;2022-07-01T06:03:14;3.03;;;1.63;;
57655;SDS011;43482;53.334;6.744;2022-07-01T06:05:40;2.80;;;1.83;;
57655;SDS011;43482;53.334;6.744;2022-07-01T06:08:06;2.63;;;1.40;;
57655;SDS011;43482;53.334;6.744;2022-07-01T06:10:32;2.38;;;1.70;;
57655;SDS011;43482;53.334;6.744;2022-07-01T06:12:58;4.20;;;2.10;;
57655;SDS011;43482;53.334;6.744;2022-07-01T06:15:24;3.03;;;1.88;;
57655;SDS011;43482;53.334;6.744;2022-07-01T06:17:50;10.10;;;3.00;;
57655;SDS011;43482;53.334;6.744;2022-07-01T06:20:16;2.55;;;1.67;;
57655;SDS011;43482;53.334;6.744;2022-07-01T06:22:42;9.32;;;3.00;;
57655;SDS011;43482;53.334;6.744;2022-07-01T06:25:08;4.32;;;2.90;;
57655;SDS011;43482;53.334;6.744;2022-07-01T06:27:40;4.47;;;2.85;;
57655;SDS011;43482;53.334;6.744;2022-07-01T06:30:07;8.52;;;3.58;;
57655;SDS011;43482;53.334;6.744;2022-07-01T06:32:33;9.05;;;3.17;;
57655;SDS011;43482;53.334;6.744;2022-07-01T06:34:58;8.90;;;3.70;;
57655;SDS011;43482;53.334;6.744;2022-07-01T06:37:24;4.60;;;2.92;;
57655;SDS011;43482;53.334;6.744;2022-07-01T06:39:49;6.18;;;3.15;;
57655;SDS011;43482;53.334;6.744;2022-07-01T06:42:15;5.18;;;3.13;;
57655;SDS011;43482;53.334;6.744;2022-07-01T06:44:40;5.72;;;3.30;;
57655;SDS011;43482;53.334;6.744;2022-07-01T06:47:06;12.93;;;3.97;;
57655;SDS011;43482;53.334;6.744;2022-07-01T06:49:32;6.07;;;3.15;;
57655;SDS011;43482;53.334;6.744;2022-07-01T06:51:57;8.75;;;3.25;;
57655;SDS011;43482;53.334;6.744;2022-07-01T06:54:22;5.35;;;3.60;;
57655;SDS011;43482;53.334;6.744;2022-07-01T06:56:48;8.43;;;3.67;;
57655;SDS011;43482;53.334;6.744;2022-07-01T06:59:13;7.00;;;3.35;;
57655;SDS011;43482;53.334;6.744;2022-07-01T07:01:40;5.10;;;3.45;;
57655;SDS011;43482;53.334;6.744;2022-07-01T07:04:05;7.35;;;3.17;;
57655;SDS011;43482;53.334;6.744;2022-07-01T07:06:31;3.78;;;3.13;;
57655;SDS011;43482;53.334;6.744;2022-07-01T07:08:56;5.32;;;3.38;;
57655;SDS011;43482;53.334;6.744;2022-07-01T07:11:22;7.15;;;2.40;;
57655;SDS011;43482;53.334;6.744;2022-07-01T07:13:47;4.53;;;3.35;;
57655;SDS011;43482;53.334;6.744;2022-07-01T07:16:13;9.65;;;3.03;;
57655;SDS011;43482;53.334;6.744;2022-07-01T07:18:38;7.75;;;3.22;;
57655;SDS011;43482;53.334;6.744;2022-07-01T07:21:04;6.70;;;3.67;;
57655;SDS011;43482;53.334;6.744;2022-07-01T07:23:29;7.47;;;2.78;;
57655;SDS011;43482;53.334;6.744;2022-07-01T07:25:55;5.95;;;2.88;;
57655;SDS011;43482;53.334;6.744;2022-07-01T07:28:21;4.57;;;2.70;;
57655;SDS011;43482;53.334;6.744;2022-07-01T07:30:47;4.45;;;2.95;;
57655;SDS011;43482;53.334;6.744;2022-07-01T07:33:12;4.82;;;3.05;;
57655;SDS011;43482;53.334;6.744;2022-07-01T07:35:37;4.75;;;2.80;;
57655;SDS011;43482;53.334;6.744;2022-07-01T07:38:03;4.55;;;2.78;;
57655;SDS011;43482;53.334;6.744;2022-07-01T07:40:28;7.57;;;2.88;;
57655;SDS011;43482;53.334;6.744;2022-07-01T07:42:54;5.53;;;2.50;;
57655;SDS011;43482;53.334;6.744;2022-07-01T07:45:19;5.47;;;3.53;;
57655;SDS011;43482;53.334;6.744;2022-07-01T07:47:45;3.42;;;2.58;;
57655;SDS011;43482;53.334;6.744;2022-07-01T07:50:19;13.00;;;3.55;;
57655;SDS011;43482;53.334;6.744;2022-07-01T07:52:45;5.60;;;4.45;;
57655;SDS011;43482;53.334;6.744;2022-07-01T07:55:11;7.57;;;3.50;;
57655;SDS011;43482;53.334;6.744;2022-07-01T07:57:37;9.65;;;4.22;;
57655;SDS011;43482;53.334;6.744;2022-07-01T08:00:04;6.50;;;3.40;;
57655;SDS011;43482;53.334;6.744;2022-07-01T08:02:31;7.35;;;2.83;;
57655;SDS011;43482;53.334;6.744;2022-07-01T08:04:56;7.35;;;3.15;;
57655;SDS011;43482;53.334;6.744;2022-07-01T08:07:22;5.75;;;3.42;;
57655;SDS011;43482;53.334;6.744;2022-07-01T08:09:48;8.38;;;3.42;;
57655;SDS011;43482;53.334;6.744;2022-07-01T08:12:14;7.97;;;2.72;;
57655;SDS011;43482;53.334;6.744;2022-07-01T08:14:40;5.13;;;3.60;;
57655;SDS011;43482;53.334;6.744;2022-07-01T08:17:06;6.53;;;2.85;;
57655;SDS011;43482;53.334;6.744;2022-07-01T08:19:31;7.35;;;3.50;;
57655;SDS011;43482;53.334;6.744;2022-07-01T08:21:57;5.10;;;3.30;;
57655;SDS011;43482;53.334;6.744;2022-07-01T08:24:22;5.22;;;3.53;;
57655;SDS011;43482;53.334;6.744;2022-07-01T08:26:47;6.38;;;3.40;;
57655;SDS011;43482;53.334;6.744;2022-07-01T08:29:13;5.78;;;4.53;;
57655;SDS011;43482;53.334;6.744;2022-07-01T08:31:38;4.35;;;3.45;;
57655;SDS011;43482;53.334;6.744;2022-07-01T08:34:04;4.82;;;3.47;;
57655;SDS011;43482;53.334;6.744;2022-07-01T08:36:29;7.35;;;3.67;;
57655;SDS011;43482;53.334;6.744;2022-07-01T08:38:55;4.75;;;2.78;;
57655;SDS011;43482;53.334;6.744;2022-07-01T08:41:20;3.88;;;2.92;;
57655;SDS011;43482;53.334;6.744;2022-07-01T08:43:46;8.05;;;3.30;;
57655;SDS011;43482;53.334;6.744;2022-07-01T08:46:11;4.95;;;2.80;;
57655;SDS011;43482;53.334;6.744;2022-07-01T08:48:37;5.50;;;2.97;;
57655;SDS011;43482;53.334;6.744;2022-07-01T08:51:07;6.45;;;3.15;;
57655;SDS011;43482;53.334;6.744;2022-07-01T08:53:33;4.55;;;3.03;;
57655;SDS011;43482;53.334;6.744;2022-07-01T08:56:00;6.18;;;3.22;;
57655;SDS011;43482;53.334;6.744;2022-07-01T08:58:44;6.70;;;3.25;;
57655;SDS011;43482;53.334;6.744;2022-07-01T09:01:22;4.30;;;3.10;;
57655;SDS011;43482;53.334;6.744;2022-07-01T09:03:52;8.27;;;3.38;;
57655;SDS011;43482;53.334;6.744;2022-07-01T09:06:27;3.85;;;3.22;;
57655;SDS011;43482;53.334;6.744;2022-07-01T09:08:54;7.57;;;3.20;;
57655;SDS011;43482;53.334;6.744;2022-07-01T09:11:28;5.88;;;3.47;;
57655;SDS011;43482;53.334;6.744;2022-07-01T09:14:09;6.20;;;2.97;;
57655;SDS011;43482;53.334;6.744;2022-07-01T09:16:40;7.72;;;2.95;;
57655;SDS011;43482;53.334;6.744;2022-07-01T09:19:13;3.75;;;2.88;;
57655;SDS011;43482;53.334;6.744;2022-07-01T09:21:40;6.45;;;2.58;;
57655;SDS011;43482;53.334;6.744;2022-07-01T09:26:53;2.55;;;1.75;;
57655;SDS011;43482;53.334;6.744;2022-07-01T09:29:26;1.77;;;1.25;;
57655;SDS011;43482;53.334;6.744;2022-07-01T09:31:53;6.22;;;2.08;;
57655;SDS011;43482;53.334;6.744;2022-07-01T09:34:18;2.33;;;1.70;;
57655;SDS011;43482;53.334;6.744;2022-07-01T09:36:55;5.57;;;1.60;;
57655;SDS011;43482;53.334;6.744;2022-07-01T09:39:22;3.33;;;1.58;;
57655;SDS011;43482;53.334;6.744;2022-07-01T09:41:47;2.00;;;1.35;;
57655;SDS011;43482;53.334;6.744;2022-07-01T09:44:12;4.15;;;1.48;;
57655;SDS011;43482;53.334;6.744;2022-07-01T09:46:39;3.88;;;1.48;;
57655;SDS011;43482;53.334;6.744;2022-07-01T09:49:17;3.47;;;1.70;;
57655;SDS011;43482;53.334;6.744;2022-07-01T09:51:42;12.50;;;1.40;;
57655;SDS011;43482;53.334;6.744;2022-07-01T09:54:09;1.45;;;1.05;;
57655;SDS011;43482;53.334;6.744;2022-07-01T09:56:37;4.10;;;1.38;;
57655;SDS011;43482;53.334;6.744;2022-07-01T09:59:03;2.20;;;1.40;;
57655;SDS011;43482;53.334;6.744;2022-07-01T10:01:29;3.38;;;1.45;;
57655;SDS011;43482;53.334;6.744;2022-07-01T10:03:56;5.38;;;1.23;;
57655;SDS011;43482;53.334;6.744;2022-07-01T10:06:27;5.03;;;1.80;;
57655;SDS011;43482;53.334;6.744;2022-07-01T10:09:29;4.70;;;1.63;;
57655;SDS011;43482;53.334;6.744;2022-07-01T10:14:56;2.35;;;1.33;;
57655;SDS011;43482;53.334;6.744;2022-07-01T10:17:28;1.60;;;1.42;;
57655;SDS011;43482;53.334;6.744;2022-07-01T10:19:55;4.63;;;2.08;;
57655;SDS011;43482;53.334;6.744;2022-07-01T10:22:29;3.45;;;2.00;;
57655;SDS011;43482;53.334;6.744;2022-07-01T10:24:55;2.10;;;1.40;;
57655;SDS011;43482;53.334;6.744;2022-07-01T10:27:24;6.32;;;1.30;;
57655;SDS011;43482;53.334;6.744;2022-07-01T10:32:55;3.70;;;1.65;;
57655;SDS011;43482;53.334;6.744;2022-07-01T10:35:24;3.67;;;1.30;;
57655;SDS011;43482;53.334;6.744;2022-07-01T10:37:58;1.55;;;1.25;;
57655;SDS011;43482;53.334;6.744;2022-07-01T10:40:41;1.35;;;0.88;;
57655;SDS011;43482;53.334;6.744;2022-07-01T10:43:10;1.20;;;0.70;;
57655;SDS011;43482;53.334;6.744;2022-07-01T10:45:42;4.95;;;1.15;;
57655;SDS011;43482;53.334;6.744;2022-07-01T10:48:22;1.50;;;0.90;;
57655;SDS011;43482;53.334;6.744;2022-07-01T10:50:49;1.83;;;0.65;;
57655;SDS011;43482;53.334;6.744;2022-07-01T10:53:16;2.83;;;0.73;;
57655;SDS011;43482;53.334;6.744;2022-07-01T10:55:48;1.88;;;1.20;;
57655;SDS011;43482;53.334;6.744;2022-07-01T10:58:15;1.83;;;1.05;;
57655;SDS011;43482;53.334;6.744;2022-07-01T11:00:47;3.65;;;1.20;;
57655;SDS011;43482;53.334;6.744;2022-07-01T11:03:19;1.40;;;0.90;;
57655;SDS011;43482;53.334;6.744;2022-07-01T11:05:48;1.60;;;1.00;;
57655;SDS011;43482;53.334;6.744;2022-07-01T11:08:15;3.55;;;0.98;;
57655;SDS011;43482;53.334;6.744;2022-07-01T11:10:41;2.75;;;0.95;;
57655;SDS011;43482;53.334;6.744;2022-07-01T11:13:07;2.38;;;1.13;;
57655;SDS011;43482;53.334;6.744;2022-07-01T11:15:33;5.05;;;1.10;;
57655;SDS011;43482;53.334;6.744;2022-07-01T11:17:59;3.42;;;1.05;;
57655;SDS011;43482;53.334;6.744;2022-07-01T11:20:26;4.78;;;1.02;;
57655;SDS011;43482;53.334;6.744;2022-07-01T11:22:54;3.38;;;1.52;;
57655;SDS011;43482;53.334;6.744;2022-07-01T11:25:20;6.93;;;1.42;;
57655;SDS011;43482;53.334;6.744;2022-07-01T11:27:48;4.13;;;1.40;;
57655;SDS011;43482;53.334;6.744;2022-07-01T11:30:15;1.55;;;1.00;;
57655;SDS011;43482;53.334;6.744;2022-07-01T11:32:43;2.30;;;1.30;;
57655;SDS011;43482;53.334;6.744;2022-07-01T11:35:20;3.00;;;0.85;;
57655;SDS011;43482;53.334;6.744;2022-07-01T11:38:10;4.47;;;0.70;;
57655;SDS011;43482;53.334;6.744;2022-07-01T11:40:58;4.20;;;0.80;;
57655;SDS011;43482;53.334;6.744;2022-07-01T11:43:26;0.35;;;0.32;;
57655;SDS011;43482;53.334;6.744;2022-07-01T11:45:53;2.58;;;0.50;;
57655;SDS011;43482;53.334;6.744;2022-07-01T11:48:32;0.60;;;0.38;;
57655;SDS011;43482;53.334;6.744;2022-07-01T11:50:58;1.40;;;0.80;;
57655;SDS011;43482;53.334;6.744;2022-07-01T11:53:24;1.55;;;0.50;;
57655;SDS011;43482;53.334;6.744;2022-07-01T11:55:50;5.10;;;0.50;;
57655;SDS011;43482;53.334;6.744;2022-07-01T11:58:15;1.10;;;0.22;;
57655;SDS011;43482;53.334;6.744;2022-07-01T12:00:41;1.00;;;0.55;;
57655;SDS011;43482;53.334;6.744;2022-07-01T12:03:06;0.43;;;0.32;;
57655;SDS011;43482;53.334;6.744;2022-07-01T12:05:32;1.55;;;0.60;;
57655;SDS011;43482;53.334;6.744;2022-07-01T12:07:59;0.30;;;0.17;;
57655;SDS011;43482;53.334;6.744;2022-07-01T12:10:25;1.02;;;0.35;;
57655;SDS011;43482;53.334;6.744;2022-07-01T12:12:51;0.82;;;0.57;;
57655;SDS011;43482;53.334;6.744;2022-07-01T12:15:16;0.20;;;0.15;;
57655;SDS011;43482;53.334;6.744;2022-07-01T12:17:42;0.68;;;0.38;;
57655;SDS011;43482;53.334;6.744;2022-07-01T12:20:07;1.05;;;0.82;;
57655;SDS011;43482;53.334;6.744;2022-07-01T12:22:33;1.15;;;0.57;;
57655;SDS011;43482;53.334;6.744;2022-07-01T12:25:06;1.73;;;0.70;;
57655;SDS011;43482;53.334;6.744;2022-07-01T12:27:38;1.80;;;0.30;;
57655;SDS011;43482;53.334;6.744;2022-07-01T12:30:09;2.75;;;0.40;;
57655;SDS011;43482;53.334;6.744;2022-07-01T12:32:48;4.25;;;0.80;;
57655;SDS011;43482;53.334;6.744;2022-07-01T12:35:13;1.70;;;0.60;;
57655;SDS011;43482;53.334;6.744;2022-07-01T12:38:01;1.73;;;0.70;;
57655;SDS011;43482;53.334;6.744;2022-07-01T12:40:31;3.03;;;0.65;;
57655;SDS011;43482;53.334;6.744;2022-07-01T12:42:56;1.00;;;0.73;;
57655;SDS011;43482;53.334;6.744;2022-07-01T12:45:31;0.73;;;0.40;;
57655;SDS011;43482;53.334;6.744;2022-07-01T12:47:56;1.60;;;1.00;;
57655;SDS011;43482;53.334;6.744;2022-07-01T12:50:26;0.88;;;0.40;;
57655;SDS011;43482;53.334;6.744;2022-07-01T12:53:05;1.90;;;0.52;;
57655;SDS011;43482;53.334;6.744;2022-07-01T12:55:36;4.20;;;0.63;;
57655;SDS011;43482;53.334;6.744;2022-07-01T12:58:10;2.45;;;0.68;;
57655;SDS011;43482;53.334;6.744;2022-07-01T13:00:38;1.23;;;0.32;;
57655;SDS011;43482;53.334;6.744;2022-07-01T13:03:05;1.15;;;0.50;;
57655;SDS011;43482;53.334;6.744;2022-07-01T13:05:32;4.45;;;0.98;;
57655;SDS011;43482;53.334;6.744;2022-07-01T13:07:58;1.50;;;0.63;;
57655;SDS011;43482;53.334;6.744;2022-07-01T13:10:24;2.88;;;0.63;;
57655;SDS011;43482;53.334;6.744;2022-07-01T13:12:50;2.88;;;0.50;;
57655;SDS011;43482;53.334;6.744;2022-07-01T13:15:17;1.35;;;0.77;;
57655;SDS011;43482;53.334;6.744;2022-07-01T13:17:42;2.05;;;0.47;;
57655;SDS011;43482;53.334;6.744;2022-07-01T13:20:09;2.28;;;0.77;;
57655;SDS011;43482;53.334;6.744;2022-07-01T13:22:35;2.28;;;0.80;;
57655;SDS011;43482;53.334;6.744;2022-07-01T13:25:01;0.63;;;0.45;;
57655;SDS011;43482;53.334;6.744;2022-07-01T13:27:27;5.22;;;0.50;;
57655;SDS011;43482;53.334;6.744;2022-07-01T13:29:53;2.58;;;0.60;;
57655;SDS011;43482;53.334;6.744;2022-07-01T13:32:18;2.45;;;0.50;;
57655;SDS011;43482;53.334;6.744;2022-07-01T13:34:44;5.65;;;0.85;;
57655;SDS011;43482;53.334;6.744;2022-07-01T13:37:09;1.00;;;0.30;;
57655;SDS011;43482;53.334;6.744;2022-07-01T13:39:35;0.70;;;0.50;;
57655;SDS011;43482;53.334;6.744;2022-07-01T13:42:00;1.92;;;0.60;;
57655;SDS011;43482;53.334;6.744;2022-07-01T13:44:26;0.90;;;0.32;;
57655;SDS011;43482;53.334;6.744;2022-07-01T13:46:51;0.73;;;0.73;;
57655;SDS011;43482;53.334;6.744;2022-07-01T13:49:17;2.80;;;0.85;;
57655;SDS011;43482;53.334;6.744;2022-07-01T13:51:42;4.18;;;0.70;;
57655;SDS011;43482;53.334;6.744;2022-07-01T13:54:08;1.10;;;0.30;;
57655;SDS011;43482;53.334;6.744;2022-07-01T13:56:34;2.10;;;0.90;;
57655;SDS011;43482;53.334;6.744;2022-07-01T13:58:59;3.22;;;0.47;;
57655;SDS011;43482;53.334;6.744;2022-07-01T14:01:25;6.05;;;0.50;;
57655;SDS011;43482;53.334;6.744;2022-07-01T14:03:50;1.10;;;0.43;;
57655;SDS011;43482;53.334;6.744;2022-07-01T14:06:17;0.55;;;0.10;;
57655;SDS011;43482;53.334;6.744;2022-07-01T14:08:42;1.60;;;0.50;;
57655;SDS011;43482;53.334;6.744;2022-07-01T14:11:08;1.95;;;0.40;;
57655;SDS011;43482;53.334;6.744;2022-07-01T14:13:34;1.30;;;0.28;;
57655;SDS011;43482;53.334;6.744;2022-07-01T14:16:00;1.13;;;0.40;;
57655;SDS011;43482;53.334;6.744;2022-07-01T14:18:26;1.17;;;0.68;;
57655;SDS011;43482;53.334;6.744;2022-07-01T14:20:52;2.67;;;0.77;;
57655;SDS011;43482;53.334;6.744;2022-07-01T14:23:17;3.47;;;0.60;;
57655;SDS011;43482;53.334;6.744;2022-07-01T14:25:43;0.30;;;0.15;;
57655;SDS011;43482;53.334;6.744;2022-07-01T14:28:10;1.02;;;0.50;;
57655;SDS011;43482;53.334;6.744;2022-07-01T14:30:38;4.28;;;0.85;;
57655;SDS011;43482;53.334;6.744;2022-07-01T14:33:03;4.03;;;1.08;;
57655;SDS011;43482;53.334;6.744;2022-07-01T14:35:29;2.38;;;0.45;;
57655;SDS011;43482;53.334;6.744;2022-07-01T14:37:55;8.70;;;1.08;;
57655;SDS011;43482;53.334;6.744;2022-07-01T14:40:20;4.10;;;1.77;;
57655;SDS011;43482;53.334;6.744;2022-07-01T14:42:46;2.28;;;0.60;;
57655;SDS011;43482;53.334;6.744;2022-07-01T14:45:12;3.95;;;0.63;;
57655;SDS011;43482;53.334;6.744;2022-07-01T14:47:42;1.35;;;0.60;;
57655;SDS011;43482;53.334;6.744;2022-07-01T14:50:08;1.27;;;0.50;;
57655;SDS011;43482;53.334;6.744;2022-07-01T14:52:34;1.85;;;0.20;;
57655;SDS011;43482;53.334;6.744;2022-07-01T14:55:00;0.63;;;0.28;;
57655;SDS011;43482;53.334;6.744;2022-07-01T14:57:26;2.15;;;0.47;;